createdAt,value
2023-12-29T00:06:09.372Z,99196.83
2023-12-29T00:16:13.927Z,99186.39
2023-12-29T00:26:19.895Z,99179.31
2023-12-29T00:36:24.243Z,99177.02
2023-12-29T00:46:28.778Z,99160.34
2023-12-29T00:56:33.353Z,99151.35
2023-12-29T01:06:37.725Z,99146.27
2023-12-29T01:16:42.366Z,99142.09
2023-12-29T01:26:46.943Z,99136.75
2023-12-29T01:36:51.771Z,99121.73
2023-12-29T01:46:57.744Z,99112.02
2023-12-29T01:57:03.428Z,99102.00
2023-12-29T02:07:08.276Z,99093.86
2023-12-29T02:17:20.130Z,99075.09
2023-12-29T02:27:34.213Z,99071.97
2023-12-29T02:37:39.429Z,99067.91
2023-12-29T02:47:44.061Z,99057.16
2023-12-29T02:57:48.699Z,99043.80
2023-12-29T03:07:53.537Z,99049.00
2023-12-29T03:17:58.723Z,99047.52
2023-12-29T03:28:04.102Z,99041.86
2023-12-29T03:38:08.703Z,99045.19
2023-12-29T03:48:13.600Z,99034.27
2023-12-29T03:58:18.457Z,99023.63
2023-12-29T04:08:22.992Z,99012.30
2023-12-29T04:18:27.531Z,99000.59
2023-12-29T04:28:31.909Z,98997.23
2023-12-29T04:38:36.842Z,98996.04
2023-12-29T04:48:41.179Z,98988.27
2023-12-29T04:58:45.689Z,98968.02
2023-12-29T05:08:50.050Z,98967.35
2023-12-29T05:18:54.426Z,98972.47
2023-12-29T05:28:59.060Z,98974.10
2023-12-29T05:39:03.958Z,98962.30
2023-12-29T05:49:09.053Z,98962.47
2023-12-29T05:59:13.670Z,98954.55
2023-12-29T06:09:18.132Z,98950.18
2023-12-29T06:19:22.615Z,98954.75
2023-12-29T06:29:27.002Z,98947.52
2023-12-29T06:39:31.516Z,98933.48
2023-12-29T06:49:36.551Z,98929.58
2023-12-29T06:59:41.124Z,98931.94
2023-12-29T07:09:45.428Z,98926.71
2023-12-29T07:19:51.377Z,98927.05
2023-12-29T07:29:55.926Z,98927.84
2023-12-29T07:40:00.533Z,98924.40
2023-12-29T07:50:05.444Z,98921.05
2023-12-29T08:00:11.774Z,98911.39
2023-12-29T08:10:16.147Z,98913.13
2023-12-29T08:20:22.438Z,98913.52
2023-12-29T08:30:26.777Z,98897.61
2023-12-29T08:40:31.188Z,98895.13
2023-12-29T08:50:35.899Z,98900.11
2023-12-29T09:00:40.363Z,98905.90
2023-12-29T09:10:44.677Z,98908.02
2023-12-29T09:20:50.077Z,98908.11
2023-12-29T09:30:54.799Z,98914.00
2023-12-29T09:41:01.761Z,98910.71
2023-12-29T09:51:08.114Z,98904.30
2023-12-29T10:01:12.841Z,98896.83
2023-12-29T10:11:18.740Z,98894.77
2023-12-29T10:21:25.656Z,98890.91
2023-12-29T10:31:30.195Z,98885.48
2023-12-29T10:41:34.768Z,98881.16
2023-12-29T10:51:39.852Z,98874.45
2023-12-29T11:01:44.611Z,98872.20
2023-12-29T11:11:50.185Z,98860.80
2023-12-29T11:21:57.042Z,98849.64
2023-12-29T11:32:03.821Z,98837.80
2023-12-29T11:42:13.727Z,98818.44
2023-12-29T11:52:34.811Z,98812.66
2023-12-29T12:02:39.734Z,98805.92
2023-12-29T12:12:44.966Z,98793.52
2023-12-29T12:22:51.596Z,98790.97
2023-12-29T12:33:01.755Z,98800.77
2023-12-29T12:43:07.997Z,98797.84
2023-12-29T12:53:15.741Z,98802.20
2023-12-29T13:03:20.850Z,98808.83
2023-12-29T13:13:25.299Z,98812.10
2023-12-29T13:23:30.149Z,98816.94
2023-12-29T13:33:39.896Z,98815.54
2023-12-29T13:43:47.142Z,98815.66
2023-12-29T13:53:51.511Z,98827.11
2023-12-29T14:04:01.365Z,98827.94
2023-12-29T14:14:05.835Z,98830.86
2023-12-29T14:24:11.847Z,98829.52
2023-12-29T14:34:16.858Z,98826.56
2023-12-29T14:44:21.561Z,98829.84
2023-12-29T14:54:25.932Z,98828.34
2023-12-29T15:04:33.172Z,98824.89
2023-12-29T15:14:37.644Z,98828.56
2023-12-29T15:24:42.144Z,98823.98
2023-12-29T15:34:47.231Z,98829.67
2023-12-29T15:44:51.631Z,98829.34
2023-12-29T15:54:56.272Z,98818.85
2023-12-29T16:05:00.691Z,98816.05
2023-12-29T16:15:06.042Z,98814.65
2023-12-29T16:25:11.685Z,98804.53
2023-12-29T16:35:17.224Z,98807.23
2023-12-29T16:45:21.652Z,98808.69
2023-12-29T16:55:26.361Z,98811.08
2023-12-29T17:05:30.909Z,98805.65
2023-12-29T17:15:35.445Z,98804.85
2023-12-29T17:25:46.593Z,98809.39
2023-12-29T17:35:55.121Z,98806.55
2023-12-29T17:45:59.837Z,98801.66
2023-12-29T17:56:06.897Z,98799.47
2023-12-29T18:06:13.388Z,98799.41
2023-12-29T18:16:17.739Z,98798.33
2023-12-29T18:26:22.475Z,98788.73
2023-12-29T18:36:26.997Z,98794.79
2023-12-29T18:46:32.403Z,98800.83
2023-12-29T18:56:36.888Z,98794.27
2023-12-29T19:06:41.482Z,98791.63
2023-12-29T19:16:45.953Z,98784.52
2023-12-29T19:26:50.346Z,98787.41
2023-12-29T19:36:54.624Z,98785.31
2023-12-29T19:46:59.077Z,98787.64
2023-12-29T19:57:03.417Z,98786.65
2023-12-29T20:07:08.001Z,98791.26
2023-12-29T20:17:12.623Z,98802.00
2023-12-29T20:27:17.253Z,98806.41
2023-12-29T20:37:21.939Z,98807.71
2023-12-29T20:47:26.397Z,98802.48
2023-12-29T20:57:30.883Z,98805.94
2023-12-29T21:07:35.416Z,98800.83
2023-12-29T21:17:39.915Z,98793.98
2023-12-29T21:27:44.489Z,98782.58
2023-12-29T21:37:48.884Z,98785.40
2023-12-29T21:47:53.327Z,98786.31
2023-12-29T21:58:02.010Z,98785.14
2023-12-29T22:08:07.734Z,98773.85
2023-12-29T22:18:13.066Z,98768.70
2023-12-29T22:28:17.494Z,98766.56
2023-12-29T22:38:22.152Z,98758.23
2023-12-29T22:48:26.475Z,98745.23
2023-12-29T22:58:31.351Z,98740.16
2023-12-29T23:08:35.879Z,98735.76
2023-12-29T23:18:42.350Z,98731.70
2023-12-29T23:28:48.539Z,98717.49
2023-12-29T23:38:52.810Z,98705.34
2023-12-29T23:48:57.261Z,98703.32
2023-12-29T23:59:01.875Z,98697.60
